Time;durP1;ratioP1;P1;durP2;ratioP2;P2;SDS_P1;SDS_P2;PMS_P1;PMS_P2;Temp;Humidity;BMP_temperature;BMP_pressure;BME280_temperature;BME280_humidity;BME280_pressure;Samples;Min_cycle;Max_cycle;Signal;HPM_P1;HPM_P2
2022/12/09 00:01:19;;;;;;;23.88;15.30;;;;;;;-1.78;100.00;100773.16;5040770;28;20409;-75
2022/12/09 00:03:47;;;;;;;20.98;13.05;;;;;;;-1.83;100.00;100777.22;5045860;28;20048;-76
2022/12/09 00:06:20;;;;;;;21.45;14.35;;;;;;;-1.87;100.00;100773.59;5029510;28;20390;-75
2022/12/09 00:08:48;;;;;;;24.65;14.02;;;;;;;-1.90;100.00;100767.38;5043704;28;20056;-76
2022/12/09 00:11:16;;;;;;;24.80;13.95;;;;;;;-1.92;100.00;100769.00;5044240;28;20422;-75
2022/12/09 00:13:51;;;;;;;20.02;13.70;;;;;;;-1.94;100.00;100771.50;5045560;28;20044;-76
2022/12/09 00:16:20;;;;;;;20.15;13.23;;;;;;;-1.97;100.00;100760.97;5021504;28;20056;-75
2022/12/09 00:18:48;;;;;;;20.95;13.75;;;;;;;-1.99;100.00;100776.41;5020300;28;20052;-76
2022/12/09 00:21:21;;;;;;;19.90;13.30;;;;;;;-1.98;100.00;100767.84;5019300;28;20049;-76
2022/12/09 00:23:50;;;;;;;24.95;14.18;;;;;;;-1.99;100.00;100763.47;5058066;28;20060;-76
2022/12/09 00:26:19;;;;;;;23.17;14.63;;;;;;;-1.99;100.00;100768.66;5019624;28;20061;-75
2022/12/09 00:28:48;;;;;;;23.55;14.30;;;;;;;-1.98;100.00;100767.84;5024874;28;20056;-76
2022/12/09 00:31:19;;;;;;;24.10;14.52;;;;;;;-2.00;100.00;100766.00;5013033;28;20049;-75
2022/12/09 00:33:46;;;;;;;22.80;14.00;;;;;;;-2.01;100.00;100767.69;5037175;28;20052;-77
2022/12/09 00:36:18;;;;;;;24.17;14.75;;;;;;;-2.01;100.00;100751.31;5027599;28;20059;-74
2022/12/09 00:38:46;;;;;;;27.42;14.65;;;;;;;-2.01;100.00;100761.63;5007559;28;20036;-77
2022/12/09 00:41:14;;;;;;;21.40;13.75;;;;;;;-2.03;100.00;100758.97;5014753;28;20613;-76
2022/12/09 00:43:44;;;;;;;24.25;15.15;;;;;;;-2.05;100.00;100762.28;5040411;28;20037;-77
2022/12/09 00:46:13;;;;;;;23.45;15.20;;;;;;;-2.07;100.00;100762.22;5039274;28;20049;-76
2022/12/09 00:48:44;;;;;;;26.35;15.82;;;;;;;-2.07;100.00;100758.75;5014307;28;20049;-76
2022/12/09 00:51:20;;;;;;;23.77;15.43;;;;;;;-2.07;100.00;100762.22;5016464;28;20513;-75
2022/12/09 00:53:53;;;;;;;23.10;15.07;;;;;;;-2.06;100.00;100756.25;5014711;28;20041;-76
2022/12/09 00:56:23;;;;;;;25.73;15.02;;;;;;;-2.06;100.00;100766.56;5041884;28;20056;-76
2022/12/09 00:58:51;;;;;;;19.53;11.40;;;;;;;-2.06;100.00;100752.75;5044132;28;20055;-76
2022/12/09 01:01:19;;;;;;;28.02;14.70;;;;;;;-2.07;100.00;100762.22;5026140;28;20049;-76
2022/12/09 01:03:46;;;;;;;24.52;14.00;;;;;;;-2.09;100.00;100750.91;5039706;28;20037;-76
2022/12/09 01:06:21;;;;;;;21.70;14.68;;;;;;;-2.09;100.00;100750.91;5016444;28;20500;-76
2022/12/09 01:08:48;;;;;;;21.05;14.15;;;;;;;-2.09;100.00;100762.94;5016731;28;20056;-76
2022/12/09 01:11:21;;;;;;;25.17;14.55;;;;;;;-2.10;100.00;100756.00;5043335;28;20068;-76
2022/12/09 01:13:49;;;;;;;25.08;13.70;;;;;;;-2.12;100.00;100752.44;5045887;28;20378;-76
2022/12/09 01:16:24;;;;;;;27.88;15.48;;;;;;;-2.14;100.00;100749.78;5040405;28;20104;-76
2022/12/09 01:18:58;;;;;;;22.67;14.25;;;;;;;-2.14;100.00;100760.09;5020776;28;20382;-76
2022/12/09 01:21:27;;;;;;;22.98;14.20;;;;;;;-2.13;100.00;100756.72;5033117;28;20052;-76
2022/12/09 01:23:54;;;;;;;24.50;14.48;;;;;;;-2.13;100.00;100761.00;4999539;28;20041;-76
2022/12/09 01:26:21;;;;;;;24.63;13.23;;;;;;;-2.12;100.00;100765.34;5013607;28;20041;-76
2022/12/09 01:28:51;;;;;;;27.23;15.10;;;;;;;-2.12;100.00;100763.66;5026006;28;20525;-76
2022/12/09 01:31:21;;;;;;;22.58;14.63;;;;;;;-2.13;100.00;100758.44;5039173;28;20041;-75
2022/12/09 01:33:50;;;;;;;21.70;14.10;;;;;;;-2.14;100.00;100765.25;5044125;28;20047;-76
2022/12/09 01:36:21;;;;;;;27.63;13.68;;;;;;;-2.13;100.00;100761.00;5035848;28;20041;-76
2022/12/09 01:38:49;;;;;;;24.65;14.27;;;;;;;-2.14;100.00;100765.25;5006826;28;20430;-76
2022/12/09 01:41:18;;;;;;;22.85;13.68;;;;;;;-2.15;100.00;100766.09;5048947;28;20607;-76
2022/12/09 01:44:16;;;;;;;21.98;13.68;;;;;;;-2.17;100.00;100768.59;5045056;28;20417;-76
2022/12/09 01:46:45;;;;;;;25.10;12.70;;;;;;;-2.20;100.00;100765.81;5044329;28;20048;-76
2022/12/09 01:49:23;;;;;;;19.67;12.93;;;;;;;-2.20;100.00;100760.66;5041418;28;20049;-76
2022/12/09 01:51:59;;;;;;;20.35;13.52;;;;;;;-2.21;100.00;100766.66;5026698;28;20053;-76
2022/12/09 01:54:26;;;;;;;23.70;13.93;;;;;;;-2.20;100.00;100759.78;5008726;28;20057;-76
2022/12/09 01:56:55;;;;;;;21.83;12.93;;;;;;;-2.19;100.00;100766.75;5032035;28;20056;-76
2022/12/09 01:59:23;;;;;;;21.65;13.13;;;;;;;-2.18;100.00;100755.59;5033852;28;20052;-76
2022/12/09 02:01:55;;;;;;;19.90;12.85;;;;;;;-2.14;100.00;100756.63;5025534;28;20053;-76
2022/12/09 02:04:24;;;;;;;23.52;13.35;;;;;;;-2.11;100.00;100759.41;5031236;28;20037;-76
2022/12/09 02:06:51;;;;;;;28.23;13.80;;;;;;;-2.07;100.00;100761.31;5017314;28;20053;-76
2022/12/09 02:09:19;;;;;;;19.27;12.57;;;;;;;-2.03;100.00;100768.41;5009292;28;20063;-76
2022/12/09 02:11:52;;;;;;;21.23;12.57;;;;;;;-1.98;100.00;100752.38;5055336;28;20417;-76
2022/12/09 02:14:19;;;;;;;29.30;13.32;;;;;;;-1.93;100.00;100749.13;5034300;28;20052;-76
2022/12/09 02:17:19;;;;;;;23.23;12.60;;;;;;;-1.88;100.00;100738.22;5042705;28;20045;-76
2022/12/09 02:20:21;;;;;;;23.88;12.15;;;;;;;-1.85;100.00;100743.56;5020709;28;20418;-76
2022/12/09 02:23:27;;;;;;;25.00;13.43;;;;;;;-1.82;100.00;100742.81;5039632;28;20037;-76
2022/12/09 02:26:01;;;;;;;25.13;12.52;;;;;;;-1.78;100.00;100739.56;5004900;28;20383;-76
2022/12/09 02:28:37;;;;;;;24.27;12.70;;;;;;;-1.74;100.00;100746.66;5034597;28;20667;-76
2022/12/09 02:31:33;;;;;;;18.40;11.25;;;;;;;-1.72;100.00;100739.91;5057837;28;20494;-76
2022/12/09 02:34:13;;;;;;;20.60;11.43;;;;;;;-1.71;100.00;100730.44;5034966;28;20053;-77
2022/12/09 02:37:00;;;;;;;23.63;12.05;;;;;;;-1.71;100.00;100741.66;5028067;28;20053;-76
2022/12/09 02:39:41;;;;;;;22.25;12.07;;;;;;;-1.73;100.00;100739.81;5041488;28;20044;-76
2022/12/09 02:42:15;;;;;;;19.98;12.50;;;;;;;-1.75;100.00;100733.69;5020174;28;20512;-76
2022/12/09 02:44:47;;;;;;;19.15;12.20;;;;;;;-1.75;100.00;100738.88;5034315;28;20052;-76
2022/12/09 02:47:18;;;;;;;22.33;11.80;;;;;;;-1.74;100.00;100735.44;5040778;28;20060;-76
2022/12/09 02:49:51;;;;;;;23.15;11.98;;;;;;;-1.73;100.00;100732.94;5033940;28;20067;-76
2022/12/09 02:52:21;;;;;;;25.52;11.90;;;;;;;-1.75;100.00;100732.00;5024113;28;20053;-76
2022/12/09 02:54:50;;;;;;;20.83;11.75;;;;;;;-1.72;100.00;100736.41;5025643;28;20394;-76
2022/12/09 02:57:23;;;;;;;22.75;11.68;;;;;;;-1.74;100.00;100736.34;4983871;28;20536;-75
2022/12/09 02:59:51;;;;;;;19.92;11.35;;;;;;;-1.73;100.00;100737.25;5051152;28;20041;-75
2022/12/09 03:02:38;;;;;;;20.05;11.63;;;;;;;-1.74;100.00;100731.16;5048943;28;20574;-75
2022/12/09 03:05:15;;;;;;;25.92;12.15;;;;;;;-1.73;100.00;100726.91;5022132;28;20045;-76
2022/12/09 03:07:54;;;;;;;23.85;12.55;;;;;;;-1.72;100.00;100734.75;5023292;28;20063;-76
2022/12/09 03:10:29;;;;;;;21.80;12.00;;;;;;;-1.70;100.00;100738.28;5035892;28;20045;-76
2022/12/09 03:13:17;;;;;;;20.52;11.80;;;;;;;-1.69;100.00;100737.47;5018183;28;20029;-76
2022/12/09 03:15:52;;;;;;;29.42;13.20;;;;;;;-1.68;100.00;100733.16;5039568;28;20060;-75
2022/12/09 03:18:24;;;;;;;18.33;11.00;;;;;;;-1.69;100.00;100729.72;5043128;28;20418;-75
2022/12/09 03:20:53;;;;;;;24.17;12.20;;;;;;;-1.68;100.00;100735.75;5035463;28;20049;-76
2022/12/09 03:23:25;;;;;;;20.88;12.05;;;;;;;-1.68;100.00;100722.84;5040119;28;20037;-76
2022/12/09 03:25:54;;;;;;;28.23;12.90;;;;;;;-1.68;100.00;100728.91;5028660;28;20064;-76
2022/12/09 03:28:43;;;;;;;21.80;11.90;;;;;;;-1.67;100.00;100725.50;5013969;28;20041;-76
2022/12/09 03:31:15;;;;;;;21.77;12.30;;;;;;;-1.68;100.00;100725.41;5041943;28;20041;-76
2022/12/09 03:33:46;;;;;;;23.05;11.93;;;;;;;-1.69;100.00;100726.25;5031924;28;20037;-76
2022/12/09 03:36:16;;;;;;;19.00;11.57;;;;;;;-1.70;100.00;100727.03;5045388;28;20044;-76
2022/12/09 03:38:46;;;;;;;22.58;11.52;;;;;;;-1.71;100.00;100721.00;5038655;28;20155;-76
2022/12/09 03:41:29;;;;;;;22.60;12.27;;;;;;;-1.74;100.00;100713.09;5043655;28;20520;-75
2022/12/09 03:44:08;;;;;;;19.88;11.85;;;;;;;-1.74;100.00;100714.78;5012021;28;20049;-75
2022/12/09 03:46:35;;;;;;;22.58;12.43;;;;;;;-1.77;100.00;100715.53;5050233;28;20052;-75
2022/12/09 03:49:04;;;;;;;25.75;12.52;;;;;;;-1.80;100.00;100710.19;5052587;28;20383;-75
2022/12/09 03:51:50;;;;;;;24.77;12.70;;;;;;;-1.82;100.00;100706.66;4995075;28;20509;-76
2022/12/09 03:54:23;;;;;;;20.65;12.13;;;;;;;-1.83;100.00;100705.78;5055546;28;20513;-75
2022/12/09 03:56:55;;;;;;;25.77;12.93;;;;;;;-1.83;100.00;100695.44;5044662;28;20048;-75
2022/12/09 03:59:24;;;;;;;;;;;;;;;-1.84;100.00;100687.59;5014539;28;20045;-75
2022/12/09 04:01:51;;;;;;;24.30;12.93;;;;;;;-1.85;100.00;100690.97;5045075;28;19925;-75
2022/12/09 04:04:20;;;;;;;25.20;14.48;;;;;;;-1.84;100.00;100682.44;5057916;28;20044;-75
2022/12/09 04:06:54;;;;;;;25.13;13.43;;;;;;;-1.83;100.00;100685.09;5045262;28;20047;-76
2022/12/09 04:09:22;;;;;;;24.08;12.93;;;;;;;-1.81;100.00;100678.31;5030372;28;20056;-75
2022/12/09 04:11:50;;;;;;;26.25;13.95;;;;;;;-1.79;100.00;100679.28;5047016;28;20043;-75
2022/12/09 04:14:17;;;;;;;25.38;14.15;;;;;;;-1.78;100.00;100687.91;5005447;28;20052;-75
2022/12/09 04:16:46;;;;;;;26.77;14.05;;;;;;;-1.77;100.00;100684.53;5040382;28;20052;-75
2022/12/09 04:19:15;;;;;;;27.67;14.57;;;;;;;-1.74;100.00;100688.94;5058663;28;20422;-75
2022/12/09 04:21:42;;;;;;;26.42;14.43;;;;;;;-1.73;100.00;100686.44;5060787;28;20052;-75
2022/12/09 04:24:10;;;;;;;26.25;14.20;;;;;;;-1.71;100.00;100689.13;5045165;28;20037;-75
2022/12/09 04:26:37;;;;;;;33.15;17.90;;;;;;;-1.71;100.00;100683.94;5038486;28;20414;-77
2022/12/09 04:29:05;;;;;;;29.77;16.15;;;;;;;-1.70;100.00;100683.13;5041821;28;20493;-76
2022/12/09 04:31:33;;;;;;;25.80;14.10;;;;;;;-1.69;100.00;100679.75;5019957;28;20044;-76
2022/12/09 04:34:01;;;;;;;24.05;14.70;;;;;;;-1.69;100.00;100687.50;5045347;28;20041;-76
2022/12/09 04:36:36;;;;;;;28.77;14.30;;;;;;;-1.71;100.00;100684.81;5028290;28;20056;-76
2022/12/09 04:39:03;;;;;;;31.75;14.55;;;;;;;-1.71;100.00;100690.00;5040208;28;20049;-76
2022/12/09 04:41:31;;;;;;;28.25;14.10;;;;;;;-1.73;100.00;100689.03;5043798;28;20040;-76
2022/12/09 04:44:00;;;;;;;23.48;13.80;;;;;;;-1.75;100.00;100693.25;5043979;28;20044;-76
2022/12/09 04:46:27;;;;;;;27.65;14.25;;;;;;;-1.77;100.00;100695.75;5013993;28;20661;-76
2022/12/09 04:48:55;;;;;;;25.63;13.45;;;;;;;-1.78;100.00;100699.16;5043890;28;20060;-76
2022/12/09 04:51:24;;;;;;;25.63;14.25;;;;;;;-1.82;100.00;100693.72;5041774;28;20049;-76
2022/12/09 04:53:51;;;;;;;28.75;14.40;;;;;;;-1.84;100.00;100697.94;5038686;28;20053;-76
2022/12/09 04:56:20;;;;;;;23.85;13.65;;;;;;;-1.88;100.00;100696.00;5002973;28;20052;-76
2022/12/09 04:58:49;;;;;;;23.45;14.00;;;;;;;-1.92;100.00;100696.69;5045118;28;20049;-76
2022/12/09 05:01:19;;;;;;;25.27;14.70;;;;;;;-1.96;100.00;100706.84;4998125;28;20045;-75
2022/12/09 05:03:56;;;;;;;24.73;13.23;;;;;;;-1.98;100.00;100700.72;5040814;28;20045;-75
2022/12/09 05:06:24;;;;;;;25.90;14.13;;;;;;;-1.98;100.00;100705.88;5031457;28;20064;-76
2022/12/09 05:08:52;;;;;;;26.52;14.85;;;;;;;-1.99;100.00;100711.84;5024381;28;20048;-76
2022/12/09 05:11:20;;;;;;;25.08;13.45;;;;;;;-2.03;100.00;100704.75;4999852;28;20047;-76
2022/12/09 05:13:49;;;;;;;25.90;13.13;;;;;;;-2.06;100.00;100696.84;5041981;28;20536;-76
2022/12/09 05:16:18;;;;;;;27.15;14.60;;;;;;;-2.10;100.00;100705.22;5036524;28;20048;-75
2022/12/09 05:18:47;;;;;;;23.58;14.00;;;;;;;-2.11;100.00;100697.44;5006363;28;20131;-76
2022/12/09 05:21:17;;;;;;;31.92;15.45;;;;;;;-2.13;100.00;100693.88;5016762;28;20688;-75
2022/12/09 05:23:45;;;;;;;30.88;16.52;;;;;;;-2.16;100.00;100695.47;5034594;28;20041;-75
2022/12/09 05:26:16;;;;;;;28.75;17.67;;;;;;;-2.19;100.00;100690.16;5015723;28;20048;-76
2022/12/09 05:28:44;;;;;;;30.98;17.23;;;;;;;-2.21;100.00;100688.28;5018471;28;20044;-76
2022/12/09 05:31:15;;;;;;;30.02;17.38;;;;;;;-2.25;100.00;100682.13;5020399;28;20056;-76
2022/12/09 05:33:45;;;;;;;32.10;18.35;;;;;;;-2.26;100.00;100682.91;4988733;28;20041;-76
2022/12/09 05:36:15;;;;;;;28.35;15.55;;;;;;;-2.28;100.00;100684.53;5022450;28;20037;-76
2022/12/09 05:38:43;;;;;;;27.65;15.38;;;;;;;-2.29;100.00;100684.44;5024255;28;20045;-76
2022/12/09 05:41:12;;;;;;;22.77;14.10;;;;;;;-2.31;100.00;100684.34;5013249;28;20050;-77
2022/12/09 05:43:39;;;;;;;30.27;14.68;;;;;;;-2.35;100.00;100685.88;5020931;28;20053;-76
2022/12/09 05:46:07;;;;;;;24.33;14.07;;;;;;;-2.36;100.00;100683.25;5041199;28;20041;-77
2022/12/09 05:48:35;;;;;;;25.55;13.55;;;;;;;-2.38;100.00;100687.44;5014243;28;20044;-76
2022/12/09 05:51:10;;;;;;;22.35;13.15;;;;;;;-2.40;100.00;100684.78;5029908;28;20060;-76
2022/12/09 05:53:38;;;;;;;23.23;13.52;;;;;;;-2.41;100.00;100688.16;5044885;28;20044;-76
2022/12/09 05:56:06;;;;;;;23.23;13.93;;;;;;;-2.42;100.00;100685.47;5031363;28;20041;-76
2022/12/09 05:58:34;;;;;;;22.65;13.13;;;;;;;-2.42;100.00;100688.97;5043299;28;20056;-76
2022/12/09 06:01:03;;;;;;;26.80;15.00;;;;;;;-2.43;100.00;100689.75;5050876;28;20049;-76
2022/12/09 06:03:32;;;;;;;25.05;13.63;;;;;;;-2.44;100.00;100697.41;5052985;28;20045;-76
2022/12/09 06:06:09;;;;;;;22.58;13.25;;;;;;;-2.46;100.00;100692.16;5010785;28;20434;-75
2022/12/09 06:08:38;;;;;;;29.52;14.27;;;;;;;-2.47;100.00;100685.25;5042512;28;20053;-76
2022/12/09 06:11:13;;;;;;;28.35;13.95;;;;;;;-2.46;100.00;100689.59;5028627;28;20041;-75
2022/12/09 06:13:41;;;;;;;23.67;13.35;;;;;;;-2.47;100.00;100682.66;5043899;28;20057;-76
2022/12/09 06:16:10;;;;;;;32.15;16.05;;;;;;;-2.47;100.00;100677.50;5035117;28;20044;-82
2022/12/09 06:18:37;;;;;;;25.42;15.55;;;;;;;-2.48;100.00;100674.84;5048615;28;20057;-79
2022/12/09 06:21:07;;;;;;;27.13;14.48;;;;;;;-2.48;100.00;100673.13;5016471;28;20041;-78
2022/12/09 06:23:35;;;;;;;29.20;16.55;;;;;;;-2.48;100.00;100670.56;5035234;28;20045;-78
2022/12/09 06:26:03;;;;;;;27.98;15.55;;;;;;;-2.46;100.00;100675.81;5044102;28;20044;-79
2022/12/09 06:28:33;;;;;;;29.67;15.77;;;;;;;-2.43;100.00;100675.97;5050750;28;20041;-78
2022/12/09 06:31:00;;;;;;;38.03;16.17;;;;;;;-2.44;100.00;100672.53;5048676;28;20045;-79
2022/12/09 06:33:29;;;;;;;29.67;15.50;;;;;;;-2.43;100.00;100674.28;5031381;28;20046;-78
2022/12/09 06:36:18;;;;;;;28.55;15.27;;;;;;;-2.46;100.00;100674.09;5004809;28;20080;-80
2022/12/09 06:38:46;;;;;;;27.15;13.95;;;;;;;-2.48;100.00;100670.56;5025444;28;20053;-79
2022/12/09 06:41:14;;;;;;;28.02;15.00;;;;;;;-2.49;100.00;100675.66;5030056;28;20057;-79
2022/12/09 06:43:42;;;;;;;27.95;14.52;;;;;;;-2.52;100.00;100671.22;5043507;28;20053;-78
2022/12/09 06:46:19;;;;;;;24.92;14.32;;;;;;;-2.54;100.00;100670.25;5040361;28;20767;-79
2022/12/09 06:48:47;;;;;;;26.00;15.13;;;;;;;-2.55;100.00;100671.06;5052809;28;20049;-79
2022/12/09 06:51:16;;;;;;;30.00;15.23;;;;;;;-2.56;100.00;100672.75;5044666;28;20560;-79
2022/12/09 06:53:44;;;;;;;27.20;14.80;;;;;;;-2.56;100.00;100677.03;5027771;28;20051;-80
2022/12/09 06:56:13;;;;;;;27.13;14.85;;;;;;;-2.56;100.00;100674.44;5052590;28;20036;-80
2022/12/09 06:58:42;;;;;;;27.38;14.45;;;;;;;-2.55;100.00;100678.81;5046551;28;20048;-79
2022/12/09 07:01:14;;;;;;;28.67;15.02;;;;;;;-2.52;100.00;100684.13;5043561;28;20053;-80
2022/12/09 07:03:46;;;;;;;29.00;16.33;;;;;;;-2.48;100.00;100677.41;5053405;28;20055;-80
2022/12/09 07:06:36;;;;;;;32.38;16.00;;;;;;;-2.46;100.00;100676.69;5053947;28;20180;-80
2022/12/09 07:09:07;;;;;;;31.83;16.43;;;;;;;-2.43;100.00;100678.56;5002171;28;20060;-80
2022/12/09 07:11:35;;;;;;;37.38;17.73;;;;;;;-2.42;100.00;100676.06;5053494;28;20299;-80
2022/12/09 07:14:03;;;;;;;29.85;16.48;;;;;;;-2.40;100.00;100673.53;5042711;28;20041;-81
2022/12/09 07:16:31;;;;;;;30.17;17.08;;;;;;;-2.39;100.00;100676.22;5071516;28;20041;-80
2022/12/09 07:18:59;;;;;;;32.58;17.65;;;;;;;-2.36;100.00;100676.38;5048348;28;20052;-79
2022/12/09 07:21:27;;;;;;;34.33;15.88;;;;;;;-2.34;100.00;100671.31;5038261;28;20060;-80
2022/12/09 07:23:59;;;;;;;28.92;16.50;;;;;;;-2.32;100.00;100673.97;5011584;28;20053;-78
2022/12/09 07:26:31;;;;;;;33.13;16.00;;;;;;;-2.30;100.00;100680.09;5055909;28;20040;-82
2022/12/09 07:29:01;;;;;;;28.95;15.57;;;;;;;-2.31;100.00;100678.31;5048784;28;20041;-81
2022/12/09 07:31:30;;;;;;;31.52;16.33;;;;;;;-2.33;100.00;100674.75;5050812;28;20433;-80
2022/12/09 07:33:58;;;;;;;27.50;16.33;;;;;;;-2.35;100.00;100688.47;5054186;28;20052;-81
2022/12/09 07:36:29;;;;;;;31.83;16.77;;;;;;;-2.38;100.00;100677.13;5069411;28;20568;-81
2022/12/09 07:38:59;;;;;;;31.67;16.50;;;;;;;-2.41;100.00;100672.66;5032596;28;20045;-80
2022/12/09 07:41:27;;;;;;;26.90;15.07;;;;;;;-2.41;100.00;100677.81;5049402;28;20055;-81
2022/12/09 07:43:55;;;;;;;30.95;16.45;;;;;;;-2.41;100.00;100682.09;5022060;28;20049;-80
2022/12/09 07:46:26;;;;;;;34.28;16.25;;;;;;;-2.39;100.00;100680.50;5053048;28;20410;-80
2022/12/09 07:48:55;;;;;;;28.58;15.63;;;;;;;-2.35;100.00;100685.88;5054360;28;20056;-81
2022/12/09 07:51:24;;;;;;;22.75;13.00;;;;;;;-2.32;100.00;100692.03;5050095;28;20037;-81
2022/12/09 07:53:52;;;;;;;37.78;17.48;;;;;;;-2.29;100.00;100685.31;5035157;28;20044;-80
2022/12/09 07:56:21;;;;;;;30.27;17.35;;;;;;;-2.25;100.00;100689.84;5049213;28;20052;-80
2022/12/09 07:58:52;;;;;;;39.30;20.77;;;;;;;-2.21;100.00;100696.94;5050954;28;20410;-80
2022/12/09 08:01:23;;;;;;;31.98;18.60;;;;;;;-2.18;100.00;100699.66;5053748;28;20822;-80
2022/12/09 08:03:52;;;;;;;34.33;17.85;;;;;;;-2.14;100.00;100708.47;5056694;28;20414;-80
2022/12/09 08:06:23;;;;;;;28.02;15.98;;;;;;;-2.13;100.00;100699.03;5060855;28;20052;-81
2022/12/09 08:08:51;;;;;;;33.85;18.23;;;;;;;-2.13;100.00;100711.97;5028432;28;20056;-79
2022/12/09 08:11:21;;;;;;;30.27;17.45;;;;;;;-2.10;100.00;100709.50;5028710;28;20041;-79
2022/12/09 08:13:51;;;;;;;34.58;18.10;;;;;;;-2.07;100.00;100701.94;5037984;28;20041;-82
2022/12/09 08:16:20;;;;;;;33.30;17.27;;;;;;;-2.03;100.00;100699.56;5037126;28;20036;-80
2022/12/09 08:18:49;;;;;;;35.83;18.90;;;;;;;-2.00;100.00;100710.06;5038154;28;20048;-81
2022/12/09 08:21:21;;;;;;;35.15;17.63;;;;;;;-1.97;100.00;100699.91;5037721;28;20410;-81
2022/12/09 08:23:49;;;;;;;31.20;16.98;;;;;;;-1.93;100.00;100702.63;5043355;28;20040;-80
2022/12/09 08:26:20;;;;;;;33.50;17.65;;;;;;;-1.89;100.00;100694.22;4987795;28;20677;-80
2022/12/09 08:28:49;;;;;;;38.67;18.83;;;;;;;-1.86;100.00;100705.59;5053538;28;20423;-80
2022/12/09 08:31:20;;;;;;;34.70;18.05;;;;;;;-1.83;100.00;100699.72;5043976;28;20059;-80
2022/12/09 08:33:49;;;;;;;35.60;18.75;;;;;;;-1.79;100.00;100709.41;5031356;28;20046;-80
2022/12/09 08:36:20;;;;;;;37.95;20.63;;;;;;;-1.75;100.00;100716.50;5022278;28;20045;-78
2022/12/09 08:38:48;;;;;;;38.83;19.55;;;;;;;-1.71;100.00;100707.19;5042759;28;20049;-79
2022/12/09 08:41:18;;;;;;;42.13;20.90;;;;;;;-1.69;100.00;100706.47;5002859;28;20935;-80
2022/12/09 08:43:46;;;;;;;38.05;19.52;;;;;;;-1.65;100.00;100704.91;5050911;28;20051;-78
2022/12/09 08:46:14;;;;;;;37.17;19.90;;;;;;;-1.63;100.00;100703.28;5032763;28;20868;-78
2022/12/09 08:48:42;;;;;;;35.35;19.50;;;;;;;-1.60;100.00;100706.91;5010834;28;20052;-78
2022/12/09 08:51:11;;;;;;;34.75;18.98;;;;;;;-1.55;100.00;100707.16;5022805;28;20063;-78
2022/12/09 08:53:39;;;;;;;46.63;20.42;;;;;;;-1.50;100.00;100704.78;5030731;28;20056;-79
2022/12/09 08:56:09;;;;;;;36.38;19.25;;;;;;;-1.46;100.00;100710.19;5024353;28;20060;-79
2022/12/09 08:58:37;;;;;;;34.58;19.90;;;;;;;-1.35;100.00;100709.84;5019781;28;20052;-79
2022/12/09 09:01:05;;;;;;;41.63;21.13;;;;;;;-1.29;100.00;100705.84;5031368;28;20048;-79
2022/12/09 09:03:33;;;;;;;38.88;21.05;;;;;;;-1.20;100.00;100708.00;4998671;28;20049;-78
2022/12/09 09:06:04;;;;;;;41.92;22.02;;;;;;;-1.12;100.00;100703.19;5049919;28;20064;-79
2022/12/09 09:08:37;;;;;;;40.22;21.80;;;;;;;-1.05;100.00;100706.13;5032547;28;20056;-78
2022/12/09 09:11:17;;;;;;;36.35;20.58;;;;;;;-0.96;100.00;100710.88;5031119;28;20517;-79
2022/12/09 09:13:47;;;;;;;37.13;19.05;;;;;;;-0.89;100.00;100702.59;4997612;28;20628;-79
2022/12/09 09:16:20;;;;;;;30.38;18.60;;;;;;;-0.85;100.00;100707.09;5041709;28;20049;-78
2022/12/09 09:18:49;;;;;;;35.97;19.48;;;;;;;-0.82;100.00;100699.44;5039573;28;20041;-79
2022/12/09 09:21:19;;;;;;;37.22;19.42;;;;;;;-0.78;100.00;100703.06;5042654;28;20045;-78
2022/12/09 09:23:47;;;;;;;35.67;19.15;;;;;;;-0.74;100.00;100709.28;5025320;28;20044;-79
2022/12/09 09:26:21;;;;;;;30.52;18.42;;;;;;;-0.72;100.00;100720.59;5043537;28;20049;-79
2022/12/09 09:28:49;;;;;;;31.52;18.45;;;;;;;-0.67;100.00;100714.81;5000183;28;20120;-79
2022/12/09 09:31:20;;;;;;;31.90;18.90;;;;;;;-0.60;100.00;100714.28;5032400;28;20524;-78
2022/12/09 09:33:49;;;;;;;33.25;18.75;;;;;;;-0.54;100.00;100713.69;5016772;28;20037;-79
2022/12/09 09:36:22;;;;;;;34.38;19.50;;;;;;;-0.49;100.00;100714.78;5024392;28;20045;-79
2022/12/09 09:38:54;;;;;;;37.70;19.42;;;;;;;-0.45;100.00;100711.50;5026536;28;20041;-78
2022/12/09 09:41:35;;;;;;;33.60;18.98;;;;;;;-0.42;100.00;100723.69;5032969;28;20060;-78
2022/12/09 09:44:34;;;;;;;39.95;19.75;;;;;;;-0.38;100.00;100717.84;5003252;28;20037;-78
2022/12/09 09:47:15;;;;;;;31.58;19.05;;;;;;;-0.34;100.00;100729.22;5050202;28;20052;-78
2022/12/09 09:49:52;;;;;;;;;;;;;;;-0.33;100.00;100718.94;5043861;28;20041;-78
2022/12/09 09:52:23;;;;;;;32.72;19.27;;;;;;;-0.30;100.00;100716.50;5036783;28;20416;-78
2022/12/09 09:54:51;;;;;;;34.47;18.55;;;;;;;-0.25;100.00;100719.28;5043604;28;20049;-79
2022/12/09 09:57:39;;;;;;;35.88;20.00;;;;;;;-0.23;100.00;100718.56;5048001;28;20048;-78
2022/12/09 10:00:34;;;;;;;34.13;19.05;;;;;;;-0.18;100.00;100718.75;4998297;28;20441;-78
2022/12/09 10:03:13;;;;;;;35.22;18.77;;;;;;;-0.15;100.00;100717.97;5037247;28;20049;-79
2022/12/09 10:05:51;;;;;;;;;;;;;;;-0.12;100.00;100719.00;5019916;28;20068;-78
2022/12/09 10:08:39;;;;;;;34.38;19.10;;;;;;;-0.09;100.00;100710.50;5027840;28;19940;-79
2022/12/09 10:11:13;;;;;;;34.35;19.02;;;;;;;-0.06;100.00;100716.72;5047614;28;20049;-78
2022/12/09 10:13:56;;;;;;;35.85;20.27;;;;;;;-0.03;100.00;100713.34;5038557;28;20045;-77
2022/12/09 10:16:48;;;;;;;31.70;18.98;;;;;;;0.02;100.00;100709.28;5008532;28;20044;-78
2022/12/09 10:19:42;;;;;;;37.72;21.13;;;;;;;0.06;100.00;100710.25;5049794;28;20056;-78
2022/12/09 10:22:15;;;;;;;35.35;19.83;;;;;;;0.10;100.00;100704.41;5033422;28;20052;-77
2022/12/09 10:24:56;;;;;;;38.40;20.35;;;;;;;0.14;100.00;100698.53;5031850;28;20053;-78
2022/12/09 10:27:47;;;;;;;33.92;20.60;;;;;;;0.17;100.00;100698.66;5031027;28;20064;-77
2022/12/09 10:30:17;;;;;;;37.55;21.00;;;;;;;0.20;100.00;100693.59;5043472;28;20060;-78
2022/12/09 10:32:46;;;;;;;37.75;20.90;;;;;;;0.25;100.00;100707.66;5017630;28;20049;-79
2022/12/09 10:35:16;;;;;;;35.72;21.33;;;;;;;0.31;100.00;100715.69;5034756;28;20061;-79
2022/12/09 10:37:46;;;;;;;36.55;19.85;;;;;;;0.34;100.00;100714.91;5039553;28;20811;-79
2022/12/09 10:40:21;;;;;;;36.10;20.43;;;;;;;0.36;100.00;100711.59;5039038;28;20049;-78
2022/12/09 10:45:45;;;;;;;38.63;21.70;;;;;;;0.41;100.00;100706.59;5038668;28;20064;-78
2022/12/09 10:49:00;;;;;;;35.17;20.80;;;;;;;0.44;100.00;100703.25;5015487;28;20060;-78
2022/12/09 10:51:33;;;;;;;35.20;20.90;;;;;;;0.48;100.00;100702.56;5043761;28;20046;-78
2022/12/09 10:54:17;;;;;;;33.10;19.15;;;;;;;0.52;100.00;100704.44;5052472;28;20045;-79
2022/12/09 10:57:13;;;;;;;35.80;20.85;;;;;;;0.60;100.00;100700.44;5032476;28;20053;-80
2022/12/09 10:59:55;;;;;;;37.53;21.58;;;;;;;0.67;100.00;100697.28;5047011;28;20048;-77
2022/12/09 11:02:26;;;;;;;37.28;22.23;;;;;;;0.69;100.00;100698.25;5035414;28;20043;-78
2022/12/09 11:04:55;;;;;;;36.83;21.17;;;;;;;0.74;100.00;100695.84;5005314;28;20045;-77
2022/12/09 11:07:25;;;;;;;36.45;22.00;;;;;;;0.74;100.00;100691.53;5027773;28;20029;-77
2022/12/09 11:09:53;;;;;;;36.50;20.48;;;;;;;0.78;100.00;100692.56;5037748;28;20045;-79
2022/12/09 11:12:27;;;;;;;36.78;21.95;;;;;;;0.80;100.00;100690.91;5015321;28;20327;-77
2022/12/09 11:15:24;;;;;;;37.42;23.30;;;;;;;0.83;100.00;100685.81;5049576;28;20045;-77
2022/12/09 11:18:30;;;;;;;34.22;20.95;;;;;;;0.85;100.00;100688.47;5041400;28;20071;-78
2022/12/09 11:21:01;;;;;;;33.80;19.70;;;;;;;0.87;100.00;100685.13;5022651;28;20079;-78
2022/12/09 11:23:30;;;;;;;37.03;21.23;;;;;;;0.87;100.00;100690.31;5028305;28;20060;-79
2022/12/09 11:26:00;;;;;;;29.48;19.80;;;;;;;0.88;100.00;100692.06;5039221;28;20056;-78
2022/12/09 11:28:29;;;;;;;34.92;20.85;;;;;;;0.88;100.00;100686.88;5027629;28;20045;-78
2022/12/09 11:31:01;;;;;;;36.03;21.10;;;;;;;0.87;100.00;100692.00;5049917;28;20048;-79